Time;durP1;ratioP1;P1;durP2;ratioP2;P2;SDS_P1;SDS_P2;PMS_P1;PMS_P2;Temp;Humidity;BMP_temperature;BMP_pressure;BME280_temperature;BME280_humidity;BME280_pressure;Samples;Min_cycle;Max_cycle;Signal;HPM_P1;HPM_P2
2023/10/19 00:02:58;;;;;;;47.15;22.40;;;;;8.20;94949.00;;;;8374676;28;20251;-65
2023/10/19 00:07:04;;;;;;;46.87;23.20;;;;;8.10;94955.00;;;;8372797;28;20200;-65
2023/10/19 00:11:09;;;;;;;52.20;23.27;;;;;8.10;94947.00;;;;8368859;28;20302;-66
2023/10/19 00:15:14;;;;;;;50.03;23.77;;;;;8.20;94926.00;;;;8367967;28;20848;-65
2023/10/19 00:19:19;;;;;;;50.03;23.53;;;;;8.20;94922.00;;;;8376495;28;20228;-66
2023/10/19 00:23:31;;;;;;;46.90;23.73;;;;;8.10;94923.00;;;;8376289;28;20205;-67
2023/10/19 00:27:35;;;;;;;53.23;24.27;;;;;8.20;94916.00;;;;8369680;28;20220;-67
2023/10/19 00:31:40;;;;;;;49.60;23.90;;;;;8.20;94924.00;;;;8372978;28;20757;-67
2023/10/19 00:35:46;;;;;;;49.37;23.33;;;;;8.20;94917.00;;;;8374343;28;20706;-66
2023/10/19 00:39:54;;;;;;;48.93;24.77;;;;;8.30;94919.00;;;;8361585;28;20254;-65
2023/10/19 00:44:02;;;;;;;51.67;22.92;;;;;8.30;94906.00;;;;8374371;28;20234;-68
2023/10/19 00:48:11;;;;;;;50.83;23.90;;;;;8.40;94907.00;;;;8367031;28;20747;-68
2023/10/19 00:52:19;;;;;;;47.67;23.73;;;;;8.40;94904.00;;;;8372377;28;20200;-69
2023/10/19 00:56:48;;;;;;;47.03;23.60;;;;;8.40;94897.00;;;;8356794;28;20286;-67
2023/10/19 01:00:55;;;;;;;51.53;23.67;;;;;8.40;94878.00;;;;8353250;28;20562;-68
2023/10/19 01:05:00;;;;;;;59.27;24.73;;;;;8.40;94878.00;;;;8342260;28;20578;-68
2023/10/19 01:09:04;;;;;;;49.15;24.55;;;;;8.40;94882.00;;;;8331693;28;20229;-68
2023/10/19 01:13:12;;;;;;;46.33;22.80;;;;;8.40;94876.00;;;;8349524;28;20223;-69
2023/10/19 01:17:15;;;;;;;47.83;22.93;;;;;8.40;94863.00;;;;8338194;28;20220;-68
2023/10/19 01:21:21;;;;;;;51.63;25.40;;;;;8.40;94867.00;;;;8341611;28;20723;-68
2023/10/19 01:25:33;;;;;;;47.07;24.17;;;;;8.30;94855.00;;;;8340663;28;20197;-67
2023/10/19 01:29:37;;;;;;;52.73;24.93;;;;;8.30;94854.00;;;;8337033;28;20225;-68
2023/10/19 01:33:41;;;;;;;48.90;24.67;;;;;8.30;94849.00;;;;8345792;28;20649;-68
2023/10/19 01:37:45;;;;;;;51.53;25.27;;;;;8.30;94839.00;;;;8341900;28;20247;-67
2023/10/19 01:41:50;;;;;;;51.77;24.10;;;;;8.30;94835.00;;;;8344878;28;20192;-68
2023/10/19 01:45:55;;;;;;;46.50;23.85;;;;;8.40;94836.00;;;;8343929;28;20249;-68
2023/10/19 01:49:58;;;;;;;48.75;24.83;;;;;8.50;94835.00;;;;8346302;28;20258;-68
2023/10/19 01:54:01;;;;;;;57.63;25.13;;;;;8.50;94841.00;;;;8341312;28;20761;-67
2023/10/19 01:58:06;;;;;;;48.10;24.40;;;;;8.50;94840.00;;;;8345968;28;21076;-67
2023/10/19 02:02:11;;;;;;;47.53;25.38;;;;;8.60;94835.00;;;;8338953;28;20252;-68
2023/10/19 02:06:19;;;;;;;50.70;24.77;;;;;8.60;94844.00;;;;8346863;28;20251;-67
2023/10/19 02:10:22;;;;;;;57.73;26.47;;;;;8.60;94843.00;;;;8343699;28;20311;-67
2023/10/19 02:14:30;;;;;;;48.20;24.02;;;;;8.70;94842.00;;;;8346056;28;20193;-68
2023/10/19 02:18:34;;;;;;;48.47;24.73;;;;;8.70;94823.00;;;;8342896;28;20228;-67
2023/10/19 02:22:37;;;;;;;50.27;24.53;;;;;8.80;94816.00;;;;8347124;28;20645;-67
2023/10/19 02:26:42;;;;;;;52.03;25.60;;;;;8.80;94811.00;;;;8341616;28;20204;-67
2023/10/19 02:30:46;;;;;;;53.53;24.53;;;;;8.80;94814.00;;;;8339293;28;20229;-67
2023/10/19 02:34:50;;;;;;;48.57;24.47;;;;;8.80;94803.00;;;;8345056;28;20207;-67
2023/10/19 02:38:53;;;;;;;48.50;24.60;;;;;8.80;94791.00;;;;8340671;28;20685;-68
2023/10/19 02:42:56;;;;;;;45.50;22.43;;;;;8.80;94799.00;;;;8341831;28;20323;-67
2023/10/19 02:47:08;;;;;;;46.33;23.77;;;;;8.80;94794.00;;;;8342904;28;20422;-67
2023/10/19 02:51:12;;;;;;;50.70;24.10;;;;;8.80;94796.00;;;;8340767;28;20228;-67
2023/10/19 02:55:16;;;;;;;44.97;23.50;;;;;8.80;94797.00;;;;8336229;28;20693;-67
2023/10/19 02:59:22;;;;;;;47.83;24.08;;;;;8.80;94791.00;;;;8340522;28;20218;-67
2023/10/19 03:03:27;;;;;;;47.27;23.00;;;;;8.80;94785.00;;;;8365405;22;20323;-67
2023/10/19 03:07:34;;;;;;;49.57;23.53;;;;;8.80;94782.00;;;;8337297;28;20201;-67
2023/10/19 03:11:38;;;;;;;51.20;23.73;;;;;8.90;94785.00;;;;8329069;28;20225;-68
2023/10/19 03:15:43;;;;;;;45.23;24.20;;;;;8.90;94778.00;;;;8339927;28;20196;-67
2023/10/19 03:19:48;;;;;;;48.30;23.07;;;;;8.90;94769.00;;;;8341584;28;20205;-67
2023/10/19 03:23:51;;;;;;;48.97;22.87;;;;;8.90;94757.00;;;;8343748;28;20282;-67
2023/10/19 03:27:54;;;;;;;48.47;24.13;;;;;8.90;94741.00;;;;8342256;28;20214;-68
2023/10/19 03:31:58;;;;;;;47.75;22.83;;;;;8.90;94754.00;;;;8343285;28;20232;-68
2023/10/19 03:36:04;;;;;;;42.73;23.00;;;;;8.90;94746.00;;;;8334844;28;20200;-66
2023/10/19 03:40:11;;;;;;;46.50;22.80;;;;;8.90;94735.00;;;;8336786;28;20217;-67
2023/10/19 03:44:19;;;;;;;44.93;23.83;;;;;8.90;94724.00;;;;8337505;28;20777;-66
2023/10/19 03:48:26;;;;;;;48.43;24.43;;;;;8.90;94725.00;;;;8336925;28;20690;-66
2023/10/19 03:52:31;;;;;;;48.83;24.13;;;;;8.80;94720.00;;;;8333718;28;21877;-67
2023/10/19 03:56:35;;;;;;;42.80;23.83;;;;;8.80;94710.00;;;;8339174;28;20227;-67
2023/10/19 04:00:40;;;;;;;41.43;22.33;;;;;8.90;94720.00;;;;8330788;28;20311;-67
2023/10/19 04:04:47;;;;;;;40.50;22.23;;;;;8.90;94721.00;;;;8303557;28;20197;-67
2023/10/19 04:08:52;;;;;;;45.30;23.20;;;;;8.90;94710.00;;;;8298424;28;20228;-66
2023/10/19 04:12:57;;;;;;;44.25;23.08;;;;;8.90;94697.00;;;;8305661;28;20198;-66
2023/10/19 04:17:00;;;;;;;42.27;23.37;;;;;8.90;94672.00;;;;8300850;28;20211;-66
2023/10/19 04:21:04;;;;;;;47.47;23.70;;;;;8.90;94656.00;;;;8304511;28;20201;-66
2023/10/19 04:25:12;;;;;;;45.53;23.42;;;;;9.00;94635.00;;;;8301866;28;20210;-65
2023/10/19 04:29:17;;;;;;;39.53;21.33;;;;;8.90;94634.00;;;;8301728;28;20598;-66
2023/10/19 04:33:21;;;;;;;43.38;21.95;;;;;9.00;94633.00;;;;8295286;28;20201;-66
2023/10/19 04:37:27;;;;;;;44.43;21.63;;;;;9.00;94669.00;;;;8304277;28;20293;-65
2023/10/19 04:41:32;;;;;;;36.85;20.77;;;;;9.10;94681.00;;;;8294744;28;20635;-66
2023/10/19 04:45:35;;;;;;;42.05;21.65;;;;;9.10;94685.00;;;;8305999;28;20259;-66
2023/10/19 04:49:38;;;;;;;39.37;21.27;;;;;9.10;94706.00;;;;8306823;28;20225;-66
2023/10/19 04:53:42;;;;;;;40.43;21.10;;;;;9.00;94736.00;;;;8306920;28;20901;-65
2023/10/19 04:57:46;;;;;;;38.70;21.50;;;;;8.90;94736.00;;;;8304886;28;20193;-66
2023/10/19 05:01:50;;;;;;;40.30;20.67;;;;;8.90;94741.00;;;;8306634;28;20248;-66
2023/10/19 05:05:53;;;;;;;43.13;22.83;;;;;8.90;94724.00;;;;8310200;28;20239;-65
2023/10/19 05:09:59;;;;;;;43.88;23.23;;;;;8.90;94717.00;;;;8300355;28;20777;-65
2023/10/19 05:14:05;;;;;;;48.20;23.13;;;;;9.00;94733.00;;;;8307625;28;20815;-65
2023/10/19 05:18:08;;;;;;;44.93;23.20;;;;;9.10;94729.00;;;;8308166;28;20206;-65
2023/10/19 05:22:11;;;;;;;42.53;23.08;;;;;9.10;94733.00;;;;8301168;28;20725;-65
2023/10/19 05:26:14;;;;;;;41.80;23.17;;;;;9.20;94727.00;;;;8304757;28;20288;-65
2023/10/19 05:30:22;;;;;;;49.22;24.77;;;;;9.20;94705.00;;;;8304157;28;20920;-65
2023/10/19 05:34:26;;;;;;;44.00;23.30;;;;;9.20;94665.00;;;;8304647;28;20210;-65
2023/10/19 05:38:31;;;;;;;44.92;23.63;;;;;9.20;94667.00;;;;8306801;28;20286;-64
2023/10/19 05:42:35;;;;;;;46.50;24.60;;;;;9.20;94662.00;;;;8303557;28;20205;-65
2023/10/19 05:46:40;;;;;;;50.08;25.55;;;;;9.20;94653.00;;;;8301349;28;20286;-64
2023/10/19 05:50:44;;;;;;;47.60;23.58;;;;;9.20;94650.00;;;;8298379;28;20231;-65
2023/10/19 05:54:49;;;;;;;41.37;23.77;;;;;9.10;94667.00;;;;8296696;28;20279;-65
2023/10/19 05:58:53;;;;;;;43.00;22.63;;;;;9.10;94678.00;;;;8304285;28;20233;-65
2023/10/19 06:02:59;;;;;;;38.37;22.97;;;;;9.10;94676.00;;;;8304539;28;20230;-65
2023/10/19 06:07:02;;;;;;;43.03;24.50;;;;;9.00;94693.00;;;;8305719;28;20335;-65
2023/10/19 06:11:06;;;;;;;45.27;23.80;;;;;9.00;94695.00;;;;8295474;28;20233;-65
2023/10/19 06:15:12;;;;;;;41.43;24.40;;;;;9.00;94701.00;;;;8301897;28;20197;-65
2023/10/19 06:19:17;;;;;;;42.90;23.67;;;;;9.10;94683.00;;;;8300486;28;20197;-65
2023/10/19 06:23:20;;;;;;;40.53;23.77;;;;;9.10;94689.00;;;;8301813;28;20268;-65
2023/10/19 06:27:23;;;;;;;42.20;23.10;;;;;9.10;94672.00;;;;8302123;28;20710;-65
2023/10/19 06:31:28;;;;;;;38.28;21.48;;;;;9.20;94667.00;;;;8302243;28;20237;-64
2023/10/19 06:35:37;;;;;;;39.67;22.58;;;;;9.20;94668.00;;;;8302876;28;20555;-65
2023/10/19 06:39:42;;;;;;;46.87;25.03;;;;;9.30;94672.00;;;;8303552;28;20205;-65
2023/10/19 06:43:46;;;;;;;39.73;22.40;;;;;9.50;94676.00;;;;8297316;28;20205;-64
2023/10/19 06:47:50;;;;;;;42.53;23.83;;;;;9.60;94658.00;;;;8291160;28;20228;-64
2023/10/19 06:51:56;;;;;;;40.53;22.27;;;;;9.80;94660.00;;;;8296309;28;20629;-65
2023/10/19 06:55:59;;;;;;;43.55;23.83;;;;;9.90;94680.00;;;;8302280;28;20208;-64
2023/10/19 07:00:10;;;;;;;46.10;21.92;;;;;10.00;94692.00;;;;8300810;28;20233;-65
2023/10/19 07:04:14;;;;;;;41.78;22.38;;;;;10.00;94685.00;;;;8296539;28;20262;-65
2023/10/19 07:08:19;;;;;;;41.00;22.65;;;;;10.10;94684.00;;;;8297965;28;20235;-65
2023/10/19 07:12:23;;;;;;;45.17;26.38;;;;;10.10;94660.00;;;;8300377;28;20234;-65
2023/10/19 07:16:26;;;;;;;38.83;22.10;;;;;10.10;94664.00;;;;8298615;28;20317;-65
2023/10/19 07:20:32;;;;;;;37.85;22.85;;;;;10.20;94657.00;;;;8296861;28;20201;-65
2023/10/19 07:24:38;;;;;;;36.58;22.33;;;;;10.30;94659.00;;;;8299029;28;20206;-65
2023/10/19 07:28:42;;;;;;;38.55;23.08;;;;;10.40;94662.00;;;;8297434;28;20227;-65
2023/10/19 07:32:45;;;;;;;37.20;22.67;;;;;10.50;94661.00;;;;8294462;28;20968;-65
2023/10/19 07:36:48;;;;;;;37.20;21.65;;;;;10.60;94678.00;;;;8297157;28;20570;-65
2023/10/19 07:40:53;;;;;;;36.58;20.52;;;;;10.60;94671.00;;;;8295776;28;20216;-65
2023/10/19 07:44:57;;;;;;;33.95;20.45;;;;;10.70;94672.00;;;;8291181;28;20272;-65
2023/10/19 07:49:01;;;;;;;41.28;20.45;;;;;10.80;94663.00;;;;8300916;28;20985;-65
2023/10/19 07:53:05;;;;;;;39.58;19.90;;;;;11.10;94669.00;;;;8295546;28;20320;-66
2023/10/19 07:57:12;;;;;;;33.15;19.67;;;;;11.30;94657.00;;;;8297244;28;20231;-66
2023/10/19 08:01:15;;;;;;;34.42;19.88;;;;;11.50;94662.00;;;;8291242;28;20719;-66
2023/10/19 08:05:19;;;;;;;34.53;19.85;;;;;11.80;94662.00;;;;8296302;28;20195;-65
2023/10/19 08:09:23;;;;;;;32.28;19.98;;;;;12.10;94656.00;;;;8296799;28;20605;-65
2023/10/19 08:13:28;;;;;;;30.38;19.92;;;;;12.40;94668.00;;;;8300220;28;20319;-66
2023/10/19 08:17:34;;;;;;;29.38;19.58;;;;;12.70;94663.00;;;;8308115;28;20647;-66
2023/10/19 08:21:38;;;;;;;32.78;18.75;;;;;12.80;94669.00;;;;8303466;28;20199;-66
2023/10/19 08:25:41;;;;;;;31.20;19.02;;;;;12.90;94672.00;;;;8300254;28;20233;-66
2023/10/19 08:29:59;;;;;;;31.00;18.83;;;;;13.10;94672.00;;;;8307445;28;20254;-66
2023/10/19 08:34:02;;;;;;;31.08;18.52;;;;;13.30;94659.00;;;;8308736;28;20204;-66
2023/10/19 08:38:11;;;;;;;31.25;17.65;;;;;13.60;94656.00;;;;8302987;28;20218;-66
2023/10/19 08:42:15;;;;;;;29.73;17.67;;;;;13.70;94656.00;;;;8306622;28;20206;-66
2023/10/19 08:46:19;;;;;;;27.80;18.48;;;;;13.80;94650.00;;;;8301346;28;20209;-66
2023/10/19 08:50:24;;;;;;;30.48;17.92;;;;;14.00;94648.00;;;;8303382;28;20229;-66
2023/10/19 08:54:29;;;;;;;27.23;17.58;;;;;14.00;94635.00;;;;8302005;28;20241;-66
2023/10/19 08:58:32;;;;;;;26.63;18.25;;;;;14.10;94630.00;;;;8301982;28;20247;-66
2023/10/19 09:02:37;;;;;;;23.30;15.70;;;;;14.30;94647.00;;;;8301689;28;20232;-66
2023/10/19 09:06:42;;;;;;;27.13;16.63;;;;;14.50;94647.00;;;;8299776;28;20204;-67
2023/10/19 09:10:46;;;;;;;26.80;16.40;;;;;14.60;94656.00;;;;8307286;28;21658;-67
2023/10/19 09:14:50;;;;;;;26.70;17.80;;;;;14.70;94658.00;;;;8303966;28;20320;-64
2023/10/19 09:18:56;;;;;;;29.23;18.67;;;;;14.50;94661.00;;;;8301717;28;20211;-64
2023/10/19 09:23:01;;;;;;;28.60;16.80;;;;;14.40;94659.00;;;;8303719;28;20288;-64
2023/10/19 09:27:05;;;;;;;26.85;16.88;;;;;14.60;94658.00;;;;8292223;28;20864;-64
2023/10/19 09:31:09;;;;;;;25.10;17.13;;;;;14.90;94654.00;;;;8302502;28;20279;-62
2023/10/19 09:35:15;;;;;;;24.05;15.48;;;;;15.20;94661.00;;;;8302236;28;20272;-62
2023/10/19 09:39:19;;;;;;;24.60;16.50;;;;;15.10;94655.00;;;;8302886;28;20564;-62
2023/10/19 09:43:32;;;;;;;25.92;16.45;;;;;15.00;94654.00;;;;8296392;28;20206;-62
2023/10/19 09:47:40;;;;;;;26.75;16.65;;;;;15.10;94653.00;;;;8299277;28;20217;-62
2023/10/19 09:51:49;;;;;;;23.85;16.13;;;;;15.20;94650.00;;;;8301332;28;20225;-63
2023/10/19 09:56:16;;;;;;;29.33;16.80;;;;;15.10;94649.00;;;;8294545;28;20194;-62
2023/10/19 10:00:23;;;;;;;24.00;16.52;;;;;14.90;94658.00;;;;8294189;28;20285;-62
2023/10/19 10:04:33;;;;;;;30.30;17.48;;;;;14.90;94661.00;;;;8300182;28;20230;-62
2023/10/19 10:08:40;;;;;;;28.15;17.85;;;;;14.90;94661.00;;;;8292406;28;20229;-62
2023/10/19 10:12:44;;;;;;;23.13;16.35;;;;;14.70;94658.00;;;;8295836;28;22235;-62
2023/10/19 10:17:02;;;;;;;37.35;23.05;;;;;14.40;94656.00;;;;8296580;28;20316;-60
2023/10/19 10:21:08;;;;;;;30.02;19.48;;;;;14.20;94647.00;;;;8296992;28;20289;-60
2023/10/19 10:25:26;;;;;;;30.30;18.48;;;;;14.20;94627.00;;;;8293610;28;20651;-60
2023/10/19 10:29:31;;;;;;;37.80;20.48;;;;;14.00;94623.00;;;;8298297;28;20220;-62
2023/10/19 10:33:49;;;;;;;34.10;21.45;;;;;14.00;94629.00;;;;8300195;28;20236;-62
2023/10/19 10:37:55;;;;;;;36.65;22.50;;;;;13.90;94626.00;;;;8298435;28;20202;-60
2023/10/19 10:42:03;;;;;;;35.95;22.42;;;;;13.80;94619.00;;;;8301025;28;20236;-60
2023/10/19 10:46:07;;;;;;;38.47;22.27;;;;;13.70;94605.00;;;;8301047;28;20737;-60
2023/10/19 10:50:10;;;;;;;32.50;20.15;;;;;13.50;94611.00;;;;8300973;28;20481;-60
2023/10/19 10:54:14;;;;;;;33.13;21.15;;;;;13.40;94592.00;;;;8275803;28;20256;-63
2023/10/19 10:58:19;;;;;;;39.28;22.77;;;;;13.40;94578.00;;;;8282212;28;20340;-63
2023/10/19 11:02:23;;;;;;;32.92;20.92;;;;;13.40;94573.00;;;;8298799;28;21244;-62
2023/10/19 11:06:27;;;;;;;34.70;21.88;;;;;13.40;94561.00;;;;8292650;28;20201;-63
2023/10/19 11:10:31;;;;;;;33.10;21.10;;;;;13.50;94556.00;;;;8293797;28;20208;-63
2023/10/19 11:14:36;;;;;;;36.67;21.80;;;;;13.50;94546.00;;;;8294137;28;20252;-63
2023/10/19 11:18:44;;;;;;;32.28;20.52;;;;;13.60;94537.00;;;;8294653;28;21018;-63
2023/10/19 11:22:51;;;;;;;34.70;20.55;;;;;13.70;94539.00;;;;8296759;28;20674;-63
2023/10/19 11:26:55;;;;;;;32.72;20.08;;;;;13.80;94550.00;;;;8291444;28;20240;-63
2023/10/19 11:31:13;;;;;;;32.50;20.70;;;;;13.90;94537.00;;;;8294893;28;20263;-63
2023/10/19 11:35:17;;;;;;;32.08;20.70;;;;;14.00;94534.00;;;;8296712;28;20290;-60
2023/10/19 11:39:23;;;;;;;32.53;20.95;;;;;14.20;94522.00;;;;8296233;28;20198;-62
2023/10/19 11:43:26;;;;;;;33.65;21.25;;;;;14.30;94518.00;;;;8300374;28;21122;-63
2023/10/19 11:47:31;;;;;;;32.08;21.27;;;;;14.40;94511.00;;;;8296447;28;20647;-62
2023/10/19 11:51:34;;;;;;;36.13;22.10;;;;;14.60;94510.00;;;;8298280;28;20232;-62
2023/10/19 11:55:38;;;;;;;33.30;20.80;;;;;14.90;94509.00;;;;8298137;28;20238;-62
2023/10/19 11:59:41;;;;;;;37.00;21.77;;;;;15.20;94503.00;;;;8301097;28;20193;-62
2023/10/19 12:03:48;;;;;;;35.17;20.77;;;;;15.20;94518.00;;;;8299635;28;20443;-61
2023/10/19 12:07:52;;;;;;;32.28;19.80;;;;;15.30;94506.00;;;;8296382;28;20198;-62
2023/10/19 12:11:55;;;;;;;33.95;21.10;;;;;15.40;94510.00;;;;8300813;28;20229;-62
2023/10/19 12:15:59;;;;;;;32.97;20.65;;;;;15.70;94507.00;;;;8296042;28;20206;-62
2023/10/19 12:20:06;;;;;;;32.83;21.85;;;;;16.00;94504.00;;;;8300447;28;20216;-62
2023/10/19 12:24:10;;;;;;;31.23;20.42;;;;;16.30;94500.00;;;;8287985;28;20355;-61
2023/10/19 12:28:14;;;;;;;30.58;20.13;;;;;16.40;94498.00;;;;8302364;28;20325;-61
2023/10/19 12:32:18;;;;;;;26.15;18.17;;;;;16.50;94501.00;;;;8294722;28;20320;-61
2023/10/19 12:36:31;;;;;;;31.98;20.65;;;;;16.60;94499.00;;;;8303571;28;20263;-61
2023/10/19 12:40:35;;;;;;;26.83;18.80;;;;;16.50;94508.00;;;;8299211;28;20198;-61
2023/10/19 12:44:43;;;;;;;30.58;19.70;;;;;16.40;94494.00;;;;8296654;28;20212;-61
2023/10/19 12:48:50;;;;;;;27.60;18.67;;;;;16.30;94487.00;;;;8299658;28;20669;-61
2023/10/19 12:52:55;;;;;;;30.52;19.60;;;;;16.10;94483.00;;;;8303222;28;20679;-60
2023/10/19 12:56:59;;;;;;;31.52;20.23;;;;;16.00;94481.00;;;;8302066;28;20232;-60
2023/10/19 13:01:05;;;;;;;41.88;29.92;;;;;15.90;94487.00;;;;8305555;28;20243;-61
2023/10/19 13:05:08;;;;;;;39.60;26.75;;;;;15.90;94475.00;;;;8305039;28;20260;-61
2023/10/19 13:09:15;;;;;;;55.45;41.30;;;;;15.60;94473.00;;;;8308843;28;20545;-61
2023/10/19 13:13:22;;;;;;;46.10;28.42;;;;;15.50;94477.00;;;;8309167;28;20666;-60
2023/10/19 13:17:25;;;;;;;37.92;23.27;;;;;15.50;94483.00;;;;8302531;28;20292;-61
2023/10/19 13:21:32;;;;;;;47.08;33.78;;;;;15.40;94468.00;;;;8302562;28;20237;-61
2023/10/19 13:25:46;;;;;;;34.88;23.25;;;;;15.30;94464.00;;;;8303292;28;20206;-61
2023/10/19 13:29:51;;;;;;;39.17;23.20;;;;;15.20;94467.00;;;;8302449;28;20193;-60
2023/10/19 13:33:54;;;;;;;40.92;24.35;;;;;15.00;94474.00;;;;8303388;28;20225;-61
2023/10/19 13:37:57;;;;;;;44.70;29.23;;;;;14.90;94450.00;;;;8304270;28;20237;-61
2023/10/19 13:42:04;;;;;;;54.40;30.65;;;;;14.80;94452.00;;;;8311057;28;20213;-61
2023/10/19 13:46:07;;;;;;;42.20;24.73;;;;;14.70;94441.00;;;;8304430;28;20284;-60
2023/10/19 13:50:13;;;;;;;53.20;36.50;;;;;14.60;94445.00;;;;8308367;28;20209;-61
2023/10/19 13:54:16;;;;;;;43.20;29.33;;;;;14.60;94440.00;;;;8303938;28;20217;-61
2023/10/19 13:58:21;;;;;;;44.20;31.10;;;;;14.50;94417.00;;;;8307794;28;20209;-61
2023/10/19 14:02:24;;;;;;;40.03;24.17;;;;;14.50;94429.00;;;;8302830;28;20568;-61
2023/10/19 14:06:28;;;;;;;38.85;24.42;;;;;14.50;94440.00;;;;8306810;28;20205;-61
2023/10/19 14:10:33;;;;;;;38.65;24.50;;;;;14.50;94447.00;;;;8302936;28;20197;-61
2023/10/19 14:14:37;;;;;;;41.53;25.38;;;;;14.30;94453.00;;;;8303200;28;20222;-61
2023/10/19 14:18:43;;;;;;;41.40;25.17;;;;;14.30;94439.00;;;;8298179;28;20289;-61
2023/10/19 14:22:49;;;;;;;45.50;25.55;;;;;14.30;94441.00;;;;8297476;28;20590;-60
2023/10/19 14:26:54;;;;;;;38.40;24.05;;;;;14.30;94450.00;;;;8303093;28;20193;-60
2023/10/19 14:30:59;;;;;;;40.65;24.65;;;;;14.30;94442.00;;;;8302642;28;20208;-61
2023/10/19 14:35:03;;;;;;;37.35;23.98;;;;;14.40;94434.00;;;;8300634;28;20341;-61
2023/10/19 14:39:09;;;;;;;41.83;25.67;;;;;14.50;94425.00;;;;8297792;28;20205;-61
2023/10/19 14:43:12;;;;;;;42.55;24.40;;;;;14.50;94417.00;;;;8305896;28;20708;-61
2023/10/19 14:47:16;;;;;;;41.88;24.17;;;;;14.40;94418.00;;;;8302876;28;20201;-61
2023/10/19 14:51:20;;;;;;;42.38;24.58;;;;;14.40;94425.00;;;;8290722;28;20197;-61
2023/10/19 14:55:24;;;;;;;44.17;24.42;;;;;14.50;94432.00;;;;8301804;28;20312;-61
2023/10/19 14:59:27;;;;;;;38.97;23.58;;;;;14.40;94432.00;;;;8299697;28;20312;-62
2023/10/19 15:03:31;;;;;;;38.40;23.58;;;;;14.40;94432.00;;;;8295353;28;20312;-61
2023/10/19 15:07:34;;;;;;;43.08;24.70;;;;;14.40;94441.00;;;;8298760;28;20233;-61
2023/10/19 15:11:37;;;;;;;45.80;28.75;;;;;14.30;94427.00;;;;8306929;28;20208;-61
2023/10/19 15:15:40;;;;;;;62.85;36.47;;;;;14.30;94427.00;;;;8306897;28;20229;-61
2023/10/19 15:19:45;;;;;;;50.90;30.83;;;;;14.20;94414.00;;;;8306696;28;20684;-61
2023/10/19 15:23:49;;;;;;;84.00;47.35;;;;;14.20;94406.00;;;;8307959;28;20655;-61
2023/10/19 15:27:53;;;;;;;54.92;33.70;;;;;14.20;94401.00;;;;8305526;28;20961;-61
2023/10/19 15:31:56;;;;;;;44.00;26.20;;;;;14.10;94400.00;;;;8298426;28;20201;-62
2023/10/19 15:36:01;;;;;;;135.85;67.53;;;;;14.10;94411.00;;;;8298164;28;20227;-61
2023/10/19 15:40:05;;;;;;;65.05;35.80;;;;;14.10;94401.00;;;;8302776;28;20205;-62
2023/10/19 15:44:08;;;;;;;44.03;27.17;;;;;14.10;94385.00;;;;8300689;28;20208;-62
2023/10/19 15:48:12;;;;;;;49.67;28.45;;;;;14.00;94383.00;;;;8301487;28;20230;-62
2023/10/19 15:52:19;;;;;;;43.40;25.52;;;;;14.00;94388.00;;;;8303331;28;20197;-64
2023/10/19 15:56:26;;;;;;;47.90;26.50;;;;;14.00;94373.00;;;;8303517;28;20222;-62
2023/10/19 16:00:29;;;;;;;51.40;30.27;;;;;13.90;94363.00;;;;8303919;28;20242;-61
2023/10/19 16:04:32;;;;;;;44.95;27.48;;;;;13.80;94366.00;;;;8308501;28;20236;-62
2023/10/19 16:08:37;;;;;;;48.15;27.33;;;;;13.80;94361.00;;;;8306480;28;20288;-62
2023/10/19 16:12:41;;;;;;;59.72;33.08;;;;;13.70;94375.00;;;;8307167;28;20236;-62
2023/10/19 16:16:44;;;;;;;47.53;26.85;;;;;13.60;94369.00;;;;8306082;28;20198;-62
2023/10/19 16:20:47;;;;;;;43.15;25.42;;;;;13.60;94366.00;;;;8298175;28;20914;-61
2023/10/19 16:24:51;;;;;;;45.50;27.60;;;;;13.50;94364.00;;;;8298098;28;20202;-61
2023/10/19 16:28:55;;;;;;;49.13;27.38;;;;;13.40;94351.00;;;;8301983;28;20208;-62
2023/10/19 16:32:59;;;;;;;58.92;30.60;;;;;13.40;94361.00;;;;8305482;28;20225;-63
2023/10/19 16:37:03;;;;;;;57.45;30.38;;;;;13.50;94363.00;;;;8310851;28;20642;-61
2023/10/19 16:41:08;;;;;;;54.63;30.05;;;;;13.40;94361.00;;;;8305723;28;20247;-62
2023/10/19 16:45:11;;;;;;;53.85;30.52;;;;;13.40;94357.00;;;;8312908;28;20190;-61
2023/10/19 16:49:15;;;;;;;56.55;31.60;;;;;13.30;94347.00;;;;8315831;28;20206;-61
2023/10/19 16:53:18;;;;;;;84.00;40.22;;;;;13.30;94344.00;;;;8309202;28;20231;-61
2023/10/19 16:57:22;;;;;;;101.95;42.40;;;;;13.20;94338.00;;;;8310757;28;20212;-61
2023/10/19 17:01:26;;;;;;;51.97;29.83;;;;;13.20;94334.00;;;;8309479;28;20264;-61
2023/10/19 17:05:30;;;;;;;56.58;31.20;;;;;13.10;94335.00;;;;8309018;28;20320;-61
2023/10/19 17:09:34;;;;;;;50.95;29.15;;;;;13.10;94338.00;;;;8309018;28;20233;-62
2023/10/19 17:13:39;;;;;;;63.20;31.02;;;;;13.10;94337.00;;;;8302250;28;20225;-61
2023/10/19 17:17:44;;;;;;;59.50;30.52;;;;;13.10;94341.00;;;;8298198;28;20204;-61
2023/10/19 17:21:47;;;;;;;55.20;30.27;;;;;13.10;94326.00;;;;8299378;28;20566;-61
2023/10/19 17:25:51;;;;;;;55.65;32.00;;;;;13.10;94332.00;;;;8310199;28;20574;-61
2023/10/19 17:29:56;;;;;;;57.30;33.17;;;;;13.10;94334.00;;;;8299199;28;20907;-61
2023/10/19 17:33:59;;;;;;;64.47;34.17;;;;;13.10;94340.00;;;;8296291;28;20224;-61
2023/10/19 17:38:02;;;;;;;66.20;34.20;;;;;13.00;94319.00;;;;8308707;28;20720;-61
2023/10/19 17:42:06;;;;;;;57.42;32.88;;;;;13.00;94304.00;;;;8307315;28;20212;-61
2023/10/19 17:46:10;;;;;;;68.00;37.00;;;;;12.90;94298.00;;;;8300678;28;20225;-61
2023/10/19 17:50:13;;;;;;;65.85;34.25;;;;;12.80;94294.00;;;;8314313;28;20205;-61
2023/10/19 17:54:17;;;;;;;58.42;31.55;;;;;12.80;94287.00;;;;8313160;28;20228;-61
2023/10/19 17:58:20;;;;;;;65.80;32.70;;;;;12.80;94275.00;;;;8311515;28;20288;-61
2023/10/19 18:02:25;;;;;;;60.20;32.17;;;;;12.80;94271.00;;;;8306488;28;20240;-62
2023/10/19 18:06:29;;;;;;;62.45;31.40;;;;;12.80;94279.00;;;;8309218;28;20202;-62
2023/10/19 18:10:35;;;;;;;57.13;30.83;;;;;12.80;94269.00;;;;8306157;28;20300;-62
2023/10/19 18:14:39;;;;;;;55.13;32.22;;;;;12.80;94262.00;;;;8308131;28;20737;-61
2023/10/19 18:18:47;;;;;;;86.63;57.47;;;;;12.80;94264.00;;;;8304181;28;20213;-62
2023/10/19 18:22:51;;;;;;;88.72;60.70;;;;;12.80;94257.00;;;;8300365;28;20942;-62
2023/10/19 18:26:55;;;;;;;60.95;31.55;;;;;12.70;94263.00;;;;8304421;28;20204;-61
2023/10/19 18:30:58;;;;;;;57.88;31.08;;;;;12.70;94267.00;;;;8306632;28;20754;-61
2023/10/19 18:35:03;;;;;;;55.20;29.40;;;;;12.70;94261.00;;;;8307329;28;20229;-62
2023/10/19 18:39:08;;;;;;;55.90;31.15;;;;;12.60;94256.00;;;;8311867;28;20593;-62
2023/10/19 18:43:11;;;;;;;59.72;31.33;;;;;12.60;94251.00;;;;8300670;28;20287;-62
2023/10/19 18:47:14;;;;;;;53.88;28.92;;;;;12.60;94233.00;;;;8309653;28;20215;-61
2023/10/19 18:51:19;;;;;;;54.75;31.35;;;;;12.50;94241.00;;;;8309178;28;20208;-62
2023/10/19 18:55:23;;;;;;;53.22;29.88;;;;;12.40;94247.00;;;;8307029;28;20319;-62
2023/10/19 18:59:26;;;;;;;58.50;30.58;;;;;12.40;94247.00;;;;8304679;28;20800;-61
2023/10/19 19:03:31;;;;;;;50.92;28.63;;;;;12.30;94243.00;;;;8307646;28;20240;-62
2023/10/19 19:07:36;;;;;;;56.75;30.10;;;;;12.30;94240.00;;;;8310299;28;20300;-61
2023/10/19 19:11:42;;;;;;;58.38;31.05;;;;;12.20;94239.00;;;;8300584;28;20201;-62
2023/10/19 19:15:45;;;;;;;56.78;30.00;;;;;12.10;94222.00;;;;8302547;28;20220;-62
2023/10/19 19:19:48;;;;;;;58.97;31.35;;;;;12.10;94211.00;;;;8298418;28;20592;-62
2023/10/19 19:23:53;;;;;;;56.15;30.23;;;;;12.10;94201.00;;;;8296860;28;20674;-62
2023/10/19 19:27:58;;;;;;;55.53;30.13;;;;;12.10;94194.00;;;;8300767;28;20197;-62
2023/10/19 19:32:03;;;;;;;53.03;28.38;;;;;12.00;94185.00;;;;8299950;28;20211;-62
2023/10/19 19:36:06;;;;;;;47.85;26.77;;;;;12.00;94172.00;;;;8301336;28;20219;-62
2023/10/19 19:40:13;;;;;;;53.33;26.73;;;;;12.00;94160.00;;;;8302727;28;20641;-62
2023/10/19 19:44:16;;;;;;;51.65;27.10;;;;;11.90;94145.00;;;;8299439;28;20641;-62
2023/10/19 19:48:21;;;;;;;45.97;25.13;;;;;11.90;94150.00;;;;8296781;28;20278;-62
2023/10/19 19:52:24;;;;;;;48.05;26.55;;;;;12.00;94162.00;;;;8306123;28;20638;-62
2023/10/19 19:56:30;;;;;;;47.88;25.05;;;;;11.90;94186.00;;;;8298112;28;20231;-62
2023/10/19 20:00:38;;;;;;;41.83;25.25;;;;;11.90;94216.00;;;;8304743;28;20301;-61